createdAt,value
2023-03-06T00:00:54.700Z,6.18
2023-03-06T00:05:59.387Z,6.82
2023-03-06T00:11:02.244Z,10.15
2023-03-06T00:16:07.015Z,5.22
2023-03-06T00:21:11.419Z,7.13
2023-03-06T00:26:14.235Z,12.00
2023-03-06T00:31:18.368Z,8.50
2023-03-06T00:36:22.564Z,8.10
2023-03-06T00:41:25.356Z,8.38
2023-03-06T00:46:28.160Z,8.75
2023-03-06T00:51:33.305Z,9.32
2023-03-06T00:56:36.498Z,6.65
2023-03-06T01:01:39.624Z,7.32
2023-03-06T01:06:43.947Z,9.05
2023-03-06T01:11:46.891Z,9.27
2023-03-06T01:16:49.899Z,9.68
2023-03-06T01:21:54.615Z,13.82
2023-03-06T01:26:57.471Z,10.18
2023-03-06T01:32:00.340Z,14.43
2023-03-06T01:37:04.573Z,11.82
2023-03-06T01:42:07.859Z,16.38
2023-03-06T01:47:10.661Z,14.35
2023-03-06T01:52:19.905Z,16.38
2023-03-06T01:57:25.099Z,16.60
2023-03-06T02:02:28.241Z,18.05
2023-03-06T02:07:33.238Z,21.38
2023-03-06T02:12:37.522Z,19.10
2023-03-06T02:17:41.092Z,17.65
2023-03-06T02:22:53.327Z,22.48
2023-03-06T02:27:57.478Z,20.10
2023-03-06T02:33:00.490Z,22.60
2023-03-06T02:38:07.920Z,19.50
2023-03-06T02:43:13.452Z,21.25
2023-03-06T02:48:17.694Z,26.33
2023-03-06T02:53:22.685Z,26.52
2023-03-06T02:58:26.890Z,19.02
2023-03-06T03:03:29.882Z,26.27
2023-03-06T03:08:34.501Z,24.67
2023-03-06T03:13:40.664Z,23.90
2023-03-06T03:18:48.186Z,17.05
2023-03-06T03:23:53.174Z,24.98
2023-03-06T03:28:57.378Z,27.02
2023-03-06T03:34:00.946Z,26.55
2023-03-06T03:39:05.935Z,27.88
2023-03-06T03:44:10.313Z,24.75
2023-03-06T03:49:13.193Z,29.45
2023-03-06T03:54:16.118Z,21.83
2023-03-06T03:59:24.093Z,25.30
2023-03-06T04:05:02.191Z,25.63
2023-03-06T04:10:05.879Z,28.65
2023-03-06T04:15:11.093Z,25.13
2023-03-06T04:20:15.487Z,25.58
2023-03-06T04:25:19.317Z,30.13
2023-03-06T04:30:24.674Z,28.58
2023-03-06T04:35:28.195Z,26.70
2023-03-06T04:40:37.334Z,26.60
2023-03-06T04:45:42.187Z,28.17
2023-03-06T04:50:45.804Z,30.33
2023-03-06T04:55:48.685Z,30.05
2023-03-06T05:00:53.117Z,26.15
2023-03-06T05:05:55.920Z,25.48
2023-03-06T05:11:01.612Z,29.92
2023-03-06T05:16:07.671Z,27.63
2023-03-06T05:21:10.507Z,25.85
2023-03-06T05:26:15.128Z,25.50
2023-03-06T05:31:19.369Z,21.75
2023-03-06T05:36:22.416Z,22.58
2023-03-06T05:41:25.163Z,22.65
2023-03-06T05:46:29.369Z,19.63
2023-03-06T05:51:32.189Z,21.33
2023-03-06T05:56:34.987Z,20.95
2023-03-06T06:01:39.075Z,18.88
2023-03-06T06:06:41.862Z,16.05
2023-03-06T06:11:44.669Z,20.48
2023-03-06T06:16:49.119Z,19.90
2023-03-06T06:21:54.325Z,15.48
2023-03-06T06:26:58.625Z,20.55
2023-03-06T06:32:02.883Z,24.95
2023-03-06T06:37:05.747Z,17.45
2023-03-06T06:42:29.322Z,21.58
2023-03-06T06:47:34.347Z,22.55
2023-03-06T06:52:37.266Z,24.17
2023-03-06T06:57:41.236Z,29.92
2023-03-06T07:02:49.064Z,27.45
2023-03-06T07:07:51.968Z,27.33
2023-03-06T07:12:56.504Z,28.40
2023-03-06T07:18:01.325Z,25.58
2023-03-06T07:23:04.268Z,31.42
2023-03-06T07:28:07.613Z,21.00
2023-03-06T07:33:11.866Z,24.83
2023-03-06T07:38:14.638Z,18.58
2023-03-06T07:43:19.626Z,21.67
2023-03-06T07:48:31.647Z,23.70
2023-03-06T07:53:35.173Z,25.00
2023-03-06T07:58:38.718Z,18.80
2023-03-06T08:03:43.319Z,19.25
2023-03-06T08:08:47.732Z,25.98
2023-03-06T08:13:52.575Z,21.88
2023-03-06T08:18:57.653Z,24.70
2023-03-06T08:24:00.444Z,23.00
2023-03-06T08:29:03.657Z,22.08
2023-03-06T08:34:09.379Z,20.70
2023-03-06T08:39:13.061Z,19.73
2023-03-06T08:44:15.914Z,13.50
2023-03-06T08:49:20.038Z,18.85
2023-03-06T08:54:22.754Z,23.67
2023-03-06T08:59:25.714Z,22.17
2023-03-06T09:04:32.007Z,26.92
2023-03-06T09:09:34.778Z,21.50
2023-03-06T09:14:37.491Z,19.13
2023-03-06T09:19:41.597Z,18.83
2023-03-06T09:24:44.298Z,20.80
2023-03-06T09:29:47.048Z,15.77
2023-03-06T09:34:51.536Z,20.70
2023-03-06T09:39:54.328Z,17.63
2023-03-06T09:45:00.050Z,17.05
2023-03-06T09:50:24.990Z,16.00
2023-03-06T09:55:31.844Z,15.80
2023-03-06T10:00:39.455Z,17.63
2023-03-06T10:05:48.276Z,14.93
2023-03-06T10:10:59.468Z,17.40
2023-03-06T10:16:12.291Z,21.02
2023-03-06T10:21:31.230Z,19.33
2023-03-06T10:26:40.974Z,15.73
2023-03-06T10:31:49.277Z,12.70
2023-03-06T10:36:53.727Z,14.15
2023-03-06T10:41:56.672Z,12.50
2023-03-06T10:46:59.479Z,15.82
2023-03-06T10:52:07.740Z,13.18
2023-03-06T10:57:25.685Z,12.63
2023-03-06T11:02:31.490Z,10.30
2023-03-06T11:07:36.856Z,10.52
2023-03-06T11:12:41.778Z,11.32
2023-03-06T11:17:52.033Z,15.57
2023-03-06T11:23:03.918Z,14.38
2023-03-06T11:28:13.836Z,11.43
2023-03-06T11:33:23.432Z,12.75
2023-03-06T11:38:37.162Z,10.80
2023-03-06T11:43:50.763Z,9.77
2023-03-06T11:49:01.987Z,6.55
2023-03-06T11:54:06.361Z,12.60
2023-03-06T11:59:25.127Z,10.02
2023-03-06T12:04:47.055Z,7.25
2023-03-06T12:09:56.812Z,7.90
2023-03-06T12:15:16.078Z,7.10
2023-03-06T12:20:33.277Z,6.00
2023-03-06T12:25:38.625Z,6.20
2023-03-06T12:30:58.722Z,7.85
2023-03-06T12:36:17.271Z,3.53
2023-03-06T12:41:31.659Z,3.65
2023-03-06T12:46:38.403Z,3.75
2023-03-06T12:51:44.144Z,3.40
2023-03-06T12:56:49.702Z,5.82
2023-03-06T13:02:08.434Z,3.28
2023-03-06T13:07:26.232Z,3.40
2023-03-06T13:12:43.335Z,2.53
2023-03-06T13:17:46.212Z,3.80
2023-03-06T13:22:49.073Z,3.78
2023-03-06T13:28:04.254Z,2.92
2023-03-06T13:33:45.725Z,3.50
2023-03-06T13:38:59.958Z,2.63
2023-03-06T13:44:30.668Z,2.70
2023-03-06T13:49:34.923Z,2.90
2023-03-06T13:54:49.812Z,3.30
2023-03-06T14:00:32.323Z,3.42
2023-03-06T14:05:43.237Z,3.38
2023-03-06T14:10:48.123Z,2.70
2023-03-06T14:15:53.098Z,2.63
2023-03-06T14:21:00.356Z,3.22
2023-03-06T14:26:15.031Z,2.40
2023-03-06T14:31:20.230Z,2.08
2023-03-06T14:36:29.618Z,2.58
2023-03-06T14:41:34.746Z,2.17
2023-03-06T14:46:37.558Z,3.05
2023-03-06T14:51:44.805Z,2.83
2023-03-06T14:56:49.857Z,2.45
2023-03-06T15:01:57.990Z,3.58
2023-03-06T15:07:02.379Z,3.45
2023-03-06T15:12:07.973Z,1.40
2023-03-06T15:17:33.210Z,2.60
2023-03-06T15:22:38.873Z,2.33
2023-03-06T15:27:41.779Z,4.22
2023-03-06T15:32:44.568Z,3.83
2023-03-06T15:37:48.679Z,2.83
2023-03-06T15:42:51.987Z,4.22
2023-03-06T15:47:56.256Z,2.67
2023-03-06T15:53:00.379Z,1.70
2023-03-06T15:58:04.651Z,2.42
2023-03-06T16:03:07.439Z,3.17
2023-03-06T16:08:14.724Z,2.13
2023-03-06T16:13:21.900Z,1.95
2023-03-06T16:18:24.975Z,1.90
2023-03-06T16:23:29.095Z,2.55
2023-03-06T16:28:33.668Z,2.58
2023-03-06T16:33:36.589Z,2.00
2023-03-06T16:38:40.961Z,2.72
2023-03-06T16:43:43.834Z,3.30
2023-03-06T16:48:47.078Z,3.85
2023-03-06T16:53:51.866Z,3.67
2023-03-06T16:58:54.616Z,4.22
2023-03-06T17:03:57.442Z,5.35
2023-03-06T17:09:01.723Z,5.30
2023-03-06T17:14:04.460Z,5.55
2023-03-06T17:19:07.400Z,5.97
2023-03-06T17:24:11.521Z,6.13
2023-03-06T17:29:14.279Z,7.13
2023-03-06T17:34:17.644Z,5.43
2023-03-06T17:39:21.898Z,4.68
2023-03-06T17:44:24.860Z,4.07
2023-03-06T17:49:27.941Z,9.57
2023-03-06T17:54:33.192Z,7.22
2023-03-06T17:59:36.024Z,6.25
2023-03-06T18:04:38.923Z,7.93
2023-03-06T18:09:44.029Z,8.13
2023-03-06T18:14:48.612Z,7.72
2023-03-06T18:19:52.300Z,9.48
2023-03-06T18:24:56.587Z,11.20
2023-03-06T18:29:59.518Z,9.98
2023-03-06T18:35:02.361Z,10.48
2023-03-06T18:40:07.894Z,11.00
2023-03-06T18:45:12.753Z,16.58
2023-03-06T18:50:17.478Z,11.70
2023-03-06T18:55:21.813Z,14.98
2023-03-06T19:00:25.457Z,10.35
2023-03-06T19:05:28.338Z,14.00
2023-03-06T19:10:35.187Z,13.27
2023-03-06T19:15:44.041Z,15.63
2023-03-06T19:20:46.917Z,14.32
2023-03-06T19:26:09.526Z,15.63
2023-03-06T19:31:13.983Z,17.15
2023-03-06T19:36:23.063Z,16.75
2023-03-06T19:41:28.402Z,20.80
2023-03-06T19:46:31.924Z,24.85
2023-03-06T19:51:34.719Z,27.80
2023-03-06T19:56:39.282Z,30.17
2023-03-06T20:01:42.247Z,27.48
2023-03-06T20:06:50.235Z,34.78
2023-03-06T20:11:54.540Z,27.38
2023-03-06T20:16:57.501Z,35.88
2023-03-06T20:22:00.354Z,38.70
2023-03-06T20:27:04.758Z,39.17
2023-03-06T20:32:07.559Z,36.55
2023-03-06T20:37:11.162Z,37.97
2023-03-06T20:42:15.332Z,47.65
2023-03-06T20:47:18.214Z,48.42
2023-03-06T20:52:20.955Z,40.22
2023-03-06T20:57:25.084Z,41.30
2023-03-06T21:02:27.811Z,44.47
2023-03-06T21:07:30.568Z,40.58
2023-03-06T21:12:34.662Z,43.22
2023-03-06T21:17:37.462Z,43.85
2023-03-06T21:22:40.506Z,37.65
2023-03-06T21:27:44.550Z,48.90
2023-03-06T21:32:47.575Z,42.72
2023-03-06T21:37:50.297Z,43.90
2023-03-06T21:42:54.381Z,47.10
2023-03-06T21:47:57.164Z,51.20
2023-03-06T21:52:59.835Z,51.13
2023-03-06T21:58:03.929Z,39.35
2023-03-06T22:03:06.694Z,44.13
2023-03-06T22:08:09.582Z,37.80
2023-03-06T22:13:13.835Z,34.90
2023-03-06T22:18:16.701Z,44.53
2023-03-06T22:23:19.483Z,47.72
2023-03-06T22:28:23.616Z,44.70
2023-03-06T22:33:26.424Z,45.83
2023-03-06T22:38:29.463Z,31.70
2023-03-06T22:43:33.987Z,30.35
2023-03-06T22:48:37.055Z,35.17
2023-03-06T22:53:40.629Z,31.33
2023-03-06T22:58:45.091Z,23.85
2023-03-06T23:03:49.910Z,28.48
2023-03-06T23:08:55.164Z,26.77
2023-03-06T23:13:59.788Z,31.75
2023-03-06T23:19:21.397Z,31.42
2023-03-06T23:24:42.564Z,29.45
2023-03-06T23:29:50.333Z,22.77
2023-03-06T23:34:53.134Z,31.58
2023-03-06T23:39:56.023Z,23.52
2023-03-06T23:45:00.416Z,28.23
2023-03-06T23:50:03.175Z,37.13
2023-03-06T23:55:06.796Z,28.92
